This is the latest recevied weather packets stored in our database for station/object KO4ILY. If no packets are shown the sender has not sent any weather packets the latest 10 day(s).
| Time | Temp. | Humidity | Pressure | Rain* | Wind** | Luminosity | Snow |
|---|---|---|---|---|---|---|---|
| 1787612405 | 28.89° C | 54% | 1014 hPa | 0 mm | - | - | - |
| 1787608805 | 31.67° C | 43% | 1013.7 hPa | 0 mm | - | - | - |
| 1787605205 | 31.67° C | 48% | 1013.7 hPa | 0 mm | - | - | - |
| 1787601606 | 31.11° C | 47% | 1014.3 hPa | 0 mm | - | - | - |
| 1787598006 | 30.56° C | 50% | 1015.1 hPa | 0 mm | - | - | - |
| 1787594406 | 28.89° C | 49% | 1015.6 hPa | 0 mm | - | - | - |
| 1787590805 | 28.33° C | 56% | 1015.8 hPa | 0 mm | - | - | - |
| 1787587205 | 27.22° C | 61% | 1016 hPa | 0 mm | - | - | - |
| 1787583605 | 24.44° C | 72% | 1016.3 hPa | 0 mm | - | - | - |
| 1787580006 | 21.67° C | 85% | 1016.7 hPa | 0 mm | - | - | - |
| 1787576406 | 18.89° C | 92% | 1017.1 hPa | 0 mm | - | - | - |
| 1787572806 | 17.78° C | 98% | 1017.1 hPa | 0 mm | - | - | - |
| 1787569206 | 17.22° C | 98% | 1016.8 hPa | 0 mm | - | - | - |
| 1787565606 | 17.78° C | 97% | 1016.3 hPa | 0 mm | - | - | - |
| 1787562006 | 18.33° C | 95% | 1016.1 hPa | 0 mm | - | - | - |
| 1787558406 | 18.33° C | 95% | 1015.9 hPa | 0 mm | - | - | - |
| 1787554806 | 18.89° C | 92% | 1015.9 hPa | 0 mm | - | - | - |
| 1787551206 | 19.44° C | 88% | 1015.9 hPa | 0 mm | - | - | - |
| 1787547605 | 20° C | 84% | 1015.8 hPa | 0 mm | - | - | - |
| 1787544006 | 20.56° C | 81% | 1015.7 hPa | 0 mm | - | - | - |
| 1787540406 | 22.22° C | 75% | 1015.6 hPa | 0 mm | - | - | - |
| 1787536806 | 23.33° C | 68% | 1015.4 hPa | 0 mm | - | - | - |
| 1787533205 | 23.89° C | 68% | 1014.8 hPa | 0 mm | - | - | - |
| 1787529606 | 25.56° C | 64% | 1014.1 hPa | 0 mm | - | - | - |
| 1787526006 | 28.33° C | 50% | 1013.6 hPa | 0 mm | - | - | - |
* Rain latest hour (hover to see other rain measurements)
** Current wind speed in m/s (hover to see current wind gust speed)